createdAt,value
2022-09-14T00:04:58.156Z,89
2022-09-14T00:09:55.222Z,90
2022-09-14T00:14:54.726Z,90
2022-09-14T00:19:54.583Z,91
2022-09-14T00:24:54.147Z,91
2022-09-14T00:29:52.178Z,91
2022-09-14T00:34:52.016Z,91
2022-09-14T00:39:51.707Z,90
2022-09-14T00:44:50.916Z,90
2022-09-14T00:49:49.615Z,90
2022-09-14T00:54:49.298Z,90
2022-09-14T00:58:53.598Z,91
2022-09-14T01:03:53.010Z,91
2022-09-14T01:08:53.084Z,91
2022-09-14T01:13:52.269Z,91
2022-09-14T01:18:52.439Z,92
2022-09-14T01:23:49.190Z,92
2022-09-14T01:28:48.707Z,92
2022-09-14T01:33:48.801Z,93
2022-09-14T01:38:48.169Z,94
2022-09-14T01:43:46.005Z,95
2022-09-14T01:48:45.640Z,95
2022-09-14T01:53:45.213Z,95
2022-09-14T01:58:33.457Z,96
2022-09-14T02:03:32.816Z,96
2022-09-14T02:08:31.989Z,96
2022-09-14T02:13:32.081Z,96
2022-09-14T02:18:32.467Z,97
2022-09-14T02:23:31.998Z,97
2022-09-14T02:28:29.296Z,97
2022-09-14T02:33:29.383Z,98
2022-09-14T02:38:29.213Z,98
2022-09-14T02:43:28.278Z,98
2022-09-14T02:48:26.918Z,98
2022-09-14T02:53:26.348Z,98
2022-09-14T02:58:22.974Z,98
2022-09-14T03:03:22.554Z,98
2022-09-14T03:08:23.015Z,98
2022-09-14T03:13:22.120Z,98
2022-09-14T03:18:23.076Z,99
2022-09-14T03:23:20.795Z,99
2022-09-14T03:28:20.476Z,99
2022-09-14T03:33:21.045Z,99
2022-09-14T03:38:18.698Z,99
2022-09-14T03:43:19.189Z,99
2022-09-14T03:48:18.996Z,99
2022-09-14T03:53:07.069Z,99
2022-09-14T03:57:52.759Z,99
2022-09-14T04:02:52.937Z,99
2022-09-14T04:07:54.179Z,99
2022-09-14T04:12:51.366Z,100
2022-09-14T04:17:50.517Z,100
2022-09-14T04:22:51.185Z,100
2022-09-14T04:28:19.983Z,100
2022-09-14T04:32:49.250Z,100
2022-09-14T04:37:48.889Z,100
2022-09-14T04:42:46.647Z,100
2022-09-14T04:47:46.019Z,100
2022-09-14T04:52:46.017Z,100
2022-09-14T04:57:45.419Z,100
2022-09-14T04:59:06.691Z,100
2022-09-14T05:04:06.130Z,100
2022-09-14T05:09:05.976Z,100
2022-09-14T05:14:05.907Z,100
2022-09-14T05:19:06.354Z,100
2022-09-14T05:24:03.471Z,100
2022-09-14T05:29:03.150Z,100
2022-09-14T05:34:03.177Z,100
2022-09-14T05:39:02.647Z,100
2022-09-14T05:44:01.468Z,100
2022-09-14T05:49:01.129Z,100
2022-09-14T05:54:01.461Z,100
2022-09-14T05:59:02.033Z,100
2022-09-14T06:03:59.071Z,100
2022-09-14T06:08:58.618Z,100
2022-09-14T06:13:59.765Z,100
2022-09-14T06:18:57.050Z,100
2022-09-14T06:23:56.654Z,100
2022-09-14T06:28:56.913Z,100
2022-09-14T06:33:55.986Z,100
2022-09-14T06:38:54.217Z,100
2022-09-14T06:43:53.588Z,100
2022-09-14T06:48:53.746Z,100
2022-09-14T06:53:52.812Z,100
2022-09-14T06:58:50.257Z,100
2022-09-14T07:03:49.598Z,100
2022-09-14T07:08:49.722Z,100
2022-09-14T07:13:49.093Z,100
2022-09-14T07:18:47.553Z,100
2022-09-14T07:23:46.794Z,100
2022-09-14T07:28:46.950Z,100
2022-09-14T07:33:46.080Z,100
2022-09-14T07:38:53.686Z,100
2022-09-14T07:43:44.880Z,100
2022-09-14T07:48:45.038Z,99
2022-09-14T07:54:26.038Z,99
2022-09-14T07:58:44.634Z,98
2022-09-14T08:03:45.219Z,98
2022-09-14T08:08:45.608Z,98
2022-09-14T08:13:42.624Z,97
2022-09-14T08:18:42.574Z,96
2022-09-14T08:23:42.149Z,96
2022-09-14T08:28:42.065Z,94
2022-09-14T08:33:40.218Z,92
2022-09-14T08:38:40.291Z,89
2022-09-14T08:43:40.122Z,87
2022-09-14T08:48:40.521Z,87
2022-09-14T08:53:37.747Z,86
2022-09-14T08:58:48.388Z,84
2022-09-14T08:59:59.156Z,83
2022-09-14T09:04:58.918Z,83
2022-09-14T09:09:56.794Z,84
2022-09-14T09:14:55.987Z,85
2022-09-14T09:19:55.683Z,86
2022-09-14T09:24:55.153Z,87
2022-09-14T09:29:53.586Z,87
2022-09-14T09:34:54.434Z,87
2022-09-14T09:39:54.974Z,83
2022-09-14T09:45:03.090Z,82
2022-09-14T09:49:54.203Z,81
2022-09-14T09:54:54.182Z,79
2022-09-14T09:59:14.559Z,77
2022-09-14T10:04:15.207Z,77
2022-09-14T10:09:22.674Z,76
2022-09-14T10:14:21.914Z,74
2022-09-14T10:19:23.131Z,76
2022-09-14T10:24:19.889Z,73
2022-09-14T10:29:19.380Z,72
2022-09-14T10:34:20.396Z,72
2022-09-14T10:39:06.897Z,71
2022-09-14T10:44:07.151Z,71
2022-09-14T10:49:06.733Z,72
2022-09-14T10:54:06.196Z,70
2022-09-14T10:58:58.481Z,71
2022-09-14T11:03:58.283Z,67
2022-09-14T11:08:57.972Z,68
2022-09-14T11:13:57.334Z,69
2022-09-14T11:18:56.001Z,69
2022-09-14T11:23:56.679Z,68
2022-09-14T11:28:56.585Z,70
2022-09-14T11:33:55.480Z,70
2022-09-14T11:38:55.256Z,71
2022-09-14T11:43:55.264Z,70
2022-09-14T11:48:55.160Z,69
2022-09-14T11:53:52.385Z,68
2022-09-14T11:58:52.070Z,67
2022-09-14T12:03:52.862Z,68
2022-09-14T12:08:51.164Z,68
2022-09-14T12:13:50.332Z,69
2022-09-14T12:18:49.231Z,70
2022-09-14T12:23:49.193Z,70
2022-09-14T12:28:49.558Z,72
2022-09-14T12:33:49.696Z,74
2022-09-14T12:38:46.678Z,77
2022-09-14T12:43:46.314Z,84
2022-09-14T12:48:45.609Z,89
2022-09-14T12:53:44.739Z,93
2022-09-14T12:58:42.339Z,95
2022-09-14T13:03:41.804Z,96
2022-09-14T13:08:41.458Z,97
2022-09-14T13:13:42.961Z,97
2022-09-14T13:18:40.028Z,98
2022-09-14T13:23:40.007Z,98
2022-09-14T13:28:39.347Z,99
2022-09-14T13:33:38.493Z,99
2022-09-14T13:38:38.027Z,99
2022-09-14T13:43:37.848Z,99
2022-09-14T13:48:36.771Z,99
2022-09-14T13:53:37.357Z,99
2022-09-14T13:58:22.417Z,99
2022-09-14T14:03:22.639Z,99
2022-09-14T14:08:22.119Z,99
2022-09-14T14:13:22.087Z,99
2022-09-14T14:18:19.965Z,99
2022-09-14T14:23:19.574Z,98
2022-09-14T14:28:19.324Z,98
2022-09-14T14:33:18.746Z,98
2022-09-14T14:38:17.563Z,98
2022-09-14T14:43:17.086Z,98
2022-09-14T14:48:16.488Z,98
2022-09-14T14:53:16.607Z,98
2022-09-14T14:58:14.577Z,98
2022-09-14T15:00:01.861Z,98
2022-09-14T15:05:00.548Z,98
2022-09-14T15:10:01.259Z,97
2022-09-14T15:14:58.182Z,97
2022-09-14T15:19:57.823Z,97
2022-09-14T15:24:57.922Z,97
2022-09-14T15:29:57.743Z,95
2022-09-14T15:34:55.793Z,94
2022-09-14T15:39:55.719Z,92
2022-09-14T15:44:55.788Z,88
2022-09-14T15:49:55.202Z,84
2022-09-14T15:54:54.643Z,82
2022-09-14T15:59:14.306Z,81
2022-09-14T16:04:14.334Z,81
2022-09-14T16:09:23.996Z,82
2022-09-14T16:14:23.304Z,83
2022-09-14T16:19:23.335Z,82
2022-09-14T16:24:22.994Z,83
2022-09-14T16:29:21.932Z,84
2022-09-14T16:34:21.654Z,84
2022-09-14T16:39:22.916Z,84
2022-09-14T16:44:20.505Z,84
2022-09-14T16:49:27.702Z,84
2022-09-14T16:54:20.803Z,85
2022-09-14T16:59:02.848Z,85
2022-09-14T17:04:02.480Z,84
2022-09-14T17:09:01.480Z,85
2022-09-14T17:14:01.806Z,85
2022-09-14T17:18:58.589Z,85
2022-09-14T17:23:58.326Z,85
2022-09-14T17:28:58.249Z,86
2022-09-14T17:33:57.830Z,86
2022-09-14T17:38:55.795Z,87
2022-09-14T17:43:55.681Z,87
2022-09-14T17:48:54.832Z,88
2022-09-14T17:53:55.551Z,87
2022-09-14T17:58:52.728Z,87
2022-09-14T18:03:52.848Z,87
2022-09-14T18:08:51.493Z,87
2022-09-14T18:13:51.306Z,87
2022-09-14T18:18:48.778Z,88
2022-09-14T18:23:48.736Z,88
2022-09-14T18:28:48.886Z,88
2022-09-14T18:33:47.054Z,89
2022-09-14T18:38:46.639Z,89
2022-09-14T18:43:46.794Z,89
2022-09-14T18:48:45.936Z,90
2022-09-14T18:53:45.422Z,90
2022-09-14T18:58:44.428Z,90
2022-09-14T19:03:44.697Z,91
2022-09-14T19:08:44.275Z,91
2022-09-14T19:13:41.953Z,92
2022-09-14T19:18:42.141Z,92
2022-09-14T19:23:41.393Z,92
2022-09-14T19:28:41.654Z,93
2022-09-14T19:33:45.421Z,93
2022-09-14T19:38:38.560Z,94
2022-09-14T19:43:38.533Z,94
2022-09-14T19:48:37.966Z,95
2022-09-14T19:53:35.912Z,96
2022-09-14T19:58:35.871Z,96
2022-09-14T20:03:35.842Z,96
2022-09-14T20:08:36.216Z,96
2022-09-14T20:13:33.584Z,97
2022-09-14T20:18:33.485Z,97
2022-09-14T20:23:33.067Z,97
2022-09-14T20:28:32.518Z,97
2022-09-14T20:33:30.706Z,97
2022-09-14T20:38:30.373Z,97
2022-09-14T20:43:30.489Z,97
2022-09-14T20:48:31.831Z,97
2022-09-14T20:53:28.787Z,97
2022-09-14T20:58:28.775Z,98
2022-09-14T20:59:49.849Z,98
2022-09-14T21:04:49.365Z,98
2022-09-14T21:09:47.237Z,98
2022-09-14T21:14:46.966Z,98
2022-09-14T21:19:46.705Z,98
2022-09-14T21:24:46.131Z,98
2022-09-14T21:29:44.882Z,98
2022-09-14T21:34:44.491Z,98
2022-09-14T21:39:44.515Z,98
2022-09-14T21:44:43.640Z,98
2022-09-14T21:49:42.883Z,98
2022-09-14T21:54:42.713Z,98
2022-09-14T21:58:51.553Z,98
2022-09-14T22:03:52.252Z,98
2022-09-14T22:08:48.984Z,98
2022-09-14T22:13:49.565Z,98
2022-09-14T22:18:48.716Z,98
2022-09-14T22:23:47.991Z,98
2022-09-14T22:28:47.266Z,98
2022-09-14T22:33:47.431Z,98
2022-09-14T22:38:47.607Z,98
2022-09-14T22:43:48.235Z,98
2022-09-14T22:48:45.376Z,98
2022-09-14T22:53:44.920Z,98
2022-09-14T22:58:45.272Z,98
2022-09-14T23:03:44.743Z,98
2022-09-14T23:08:42.338Z,99
2022-09-14T23:13:42.157Z,98
2022-09-14T23:18:42.193Z,98
2022-09-14T23:23:43.535Z,98
2022-09-14T23:28:41.045Z,98
2022-09-14T23:33:41.164Z,98
2022-09-14T23:38:39.936Z,98
2022-09-14T23:43:38.993Z,98
2022-09-14T23:48:38.454Z,98
2022-09-14T23:53:38.718Z,98
2022-09-14T23:58:38.028Z,98
2022-09-14T23:59:59.673Z,98
